Aviation Forecast PDF Print E-mail

 met_logo

NATIONAL METEOROLOGICAL SERVICE OF BELIZE

AVIATION AREA FORECAST

NATIONAL METEOROLOGICAL SERVICE OF BELIZE

Area Forecast for the Country of Belize


For the period from:

1200  24  APRIL  2014

to

2400  24  APRIL  2014

All Heights in the forecast are above sea level. PS= Positive, MS= Minus. All times are UTC.


A.

SPECIAL FEATURES of the METEOROLOGICAL SITUATION

MAINLY FAIR, WARM AND DRY CONDITIONS WILL PREVAIL OVER THE FORECAST AREA.  

B.

HEIGHT (Ft)

WIND (True Degrees and Knots)

TEMPERATURE (°C)

Surface

12010

PS31-35

2,000

14015

PS22

5,000

11015

PS18

10,000

30505

PS10


C.

CLOUDS (Amount, Type, Ceiling and Top (optional))

 

 FEW/SCT CU BASES 2,000-3,000FT. TOPS 6,000-8,000FT. 


D.

SURFACE VISIBILITY:  GREATER THAN 10KM. REDUCED TO 5-8KM IN SHRA AND 400M IN HILL FOG.


E.

WEATHER:  MOSTLY SUNNY WITH LITTLE OR NO RAINFALL. HILL FOG INLAND.   

Remarks, Warnings, Turbulence

Barometric Changes

LOW CLOUDS COVERING HILLS

FALLING

G.

OUTLOOK:

TO 12Z 25 APRIL -

MOSTLY CLEAR WITH LITTLE OR NO RAINFALL. 

H.

TAF  MZBZ

241145Z 2412/2512 12010KT 9999 SCT022=


I.

Meteorological Office:

BELIZE

Issued at:

1145Z 24 APRIL 2014

Forecaster:

M.  GENTLE.